sensor_id;sensor_type;location;lat;lon;timestamp;P1;durP1;ratioP1;P2;durP2;ratioP2
4057;SDS011;2044;48.692;9.020;2022-11-14T00:00:49;20.17;;;10.30;;
4057;SDS011;2044;48.692;9.020;2022-11-14T00:03:16;20.43;;;10.30;;
4057;SDS011;2044;48.692;9.020;2022-11-14T00:05:43;19.73;;;11.17;;
4057;SDS011;2044;48.692;9.020;2022-11-14T00:08:15;18.90;;;10.00;;
4057;SDS011;2044;48.692;9.020;2022-11-14T00:10:44;19.83;;;11.00;;
4057;SDS011;2044;48.692;9.020;2022-11-14T00:13:12;24.53;;;12.63;;
4057;SDS011;2044;48.692;9.020;2022-11-14T00:15:41;17.27;;;9.87;;
4057;SDS011;2044;48.692;9.020;2022-11-14T00:18:09;19.70;;;10.43;;
4057;SDS011;2044;48.692;9.020;2022-11-14T00:20:36;19.73;;;10.10;;
4057;SDS011;2044;48.692;9.020;2022-11-14T00:23:02;15.47;;;8.33;;
4057;SDS011;2044;48.692;9.020;2022-11-14T00:25:30;23.30;;;12.30;;
4057;SDS011;2044;48.692;9.020;2022-11-14T00:27:57;20.00;;;10.47;;
4057;SDS011;2044;48.692;9.020;2022-11-14T00:30:24;20.97;;;11.13;;
4057;SDS011;2044;48.692;9.020;2022-11-14T00:32:51;21.97;;;10.70;;
4057;SDS011;2044;48.692;9.020;2022-11-14T00:35:19;23.00;;;9.80;;
4057;SDS011;2044;48.692;9.020;2022-11-14T00:37:46;25.93;;;11.67;;
4057;SDS011;2044;48.692;9.020;2022-11-14T00:40:13;25.27;;;10.83;;
4057;SDS011;2044;48.692;9.020;2022-11-14T00:42:40;20.00;;;9.90;;
4057;SDS011;2044;48.692;9.020;2022-11-14T00:45:07;25.83;;;11.23;;
4057;SDS011;2044;48.692;9.020;2022-11-14T00:47:35;19.53;;;10.77;;
4057;SDS011;2044;48.692;9.020;2022-11-14T00:50:02;19.23;;;10.37;;
4057;SDS011;2044;48.692;9.020;2022-11-14T00:52:31;21.17;;;10.37;;
4057;SDS011;2044;48.692;9.020;2022-11-14T00:54:57;22.03;;;11.57;;
4057;SDS011;2044;48.692;9.020;2022-11-14T00:57:24;20.47;;;10.33;;
4057;SDS011;2044;48.692;9.020;2022-11-14T00:59:51;22.93;;;10.93;;
4057;SDS011;2044;48.692;9.020;2022-11-14T01:02:19;21.90;;;11.07;;
4057;SDS011;2044;48.692;9.020;2022-11-14T01:04:46;25.93;;;10.47;;
4057;SDS011;2044;48.692;9.020;2022-11-14T01:07:13;19.70;;;8.83;;
4057;SDS011;2044;48.692;9.020;2022-11-14T01:09:41;23.27;;;11.10;;
4057;SDS011;2044;48.692;9.020;2022-11-14T01:12:07;24.50;;;11.43;;
4057;SDS011;2044;48.692;9.020;2022-11-14T01:14:34;21.23;;;10.20;;
4057;SDS011;2044;48.692;9.020;2022-11-14T01:17:01;23.30;;;10.50;;
4057;SDS011;2044;48.692;9.020;2022-11-14T01:19:28;23.80;;;11.77;;
4057;SDS011;2044;48.692;9.020;2022-11-14T01:21:55;21.13;;;10.47;;
4057;SDS011;2044;48.692;9.020;2022-11-14T01:24:21;24.93;;;10.63;;
4057;SDS011;2044;48.692;9.020;2022-11-14T01:26:49;23.10;;;10.30;;
4057;SDS011;2044;48.692;9.020;2022-11-14T01:29:19;24.20;;;11.00;;
4057;SDS011;2044;48.692;9.020;2022-11-14T01:31:46;22.97;;;11.23;;
4057;SDS011;2044;48.692;9.020;2022-11-14T01:34:12;23.43;;;10.27;;
4057;SDS011;2044;48.692;9.020;2022-11-14T01:36:39;21.40;;;11.00;;
4057;SDS011;2044;48.692;9.020;2022-11-14T01:39:06;23.70;;;10.80;;
4057;SDS011;2044;48.692;9.020;2022-11-14T01:41:32;27.53;;;11.47;;
4057;SDS011;2044;48.692;9.020;2022-11-14T01:44:00;25.83;;;12.03;;
4057;SDS011;2044;48.692;9.020;2022-11-14T01:46:28;22.70;;;10.53;;
4057;SDS011;2044;48.692;9.020;2022-11-14T01:48:59;25.30;;;11.53;;
4057;SDS011;2044;48.692;9.020;2022-11-14T01:51:30;24.70;;;10.07;;
4057;SDS011;2044;48.692;9.020;2022-11-14T01:54:01;25.83;;;10.67;;
4057;SDS011;2044;48.692;9.020;2022-11-14T01:56:32;20.97;;;10.90;;
4057;SDS011;2044;48.692;9.020;2022-11-14T01:59:04;22.57;;;11.30;;
4057;SDS011;2044;48.692;9.020;2022-11-14T02:01:34;24.53;;;10.70;;
4057;SDS011;2044;48.692;9.020;2022-11-14T02:04:03;26.10;;;10.63;;
4057;SDS011;2044;48.692;9.020;2022-11-14T02:06:31;26.90;;;11.27;;
4057;SDS011;2044;48.692;9.020;2022-11-14T02:09:01;37.20;;;13.63;;
4057;SDS011;2044;48.692;9.020;2022-11-14T02:11:29;30.40;;;11.17;;
4057;SDS011;2044;48.692;9.020;2022-11-14T02:13:59;26.93;;;11.80;;
4057;SDS011;2044;48.692;9.020;2022-11-14T02:16:28;24.67;;;11.67;;
4057;SDS011;2044;48.692;9.020;2022-11-14T02:18:54;24.40;;;9.77;;
4057;SDS011;2044;48.692;9.020;2022-11-14T02:21:23;26.27;;;10.20;;
4057;SDS011;2044;48.692;9.020;2022-11-14T02:23:49;35.47;;;11.10;;
4057;SDS011;2044;48.692;9.020;2022-11-14T02:26:16;26.83;;;11.20;;
4057;SDS011;2044;48.692;9.020;2022-11-14T02:28:44;31.67;;;11.27;;
4057;SDS011;2044;48.692;9.020;2022-11-14T02:31:11;29.57;;;9.10;;
4057;SDS011;2044;48.692;9.020;2022-11-14T02:33:38;46.63;;;11.77;;
4057;SDS011;2044;48.692;9.020;2022-11-14T02:36:06;82.17;;;12.60;;
4057;SDS011;2044;48.692;9.020;2022-11-14T02:38:34;28.67;;;11.03;;
4057;SDS011;2044;48.692;9.020;2022-11-14T02:41:01;26.40;;;11.33;;
4057;SDS011;2044;48.692;9.020;2022-11-14T02:43:28;41.83;;;10.97;;
4057;SDS011;2044;48.692;9.020;2022-11-14T02:45:55;28.07;;;9.90;;
4057;SDS011;2044;48.692;9.020;2022-11-14T02:48:21;31.17;;;8.90;;
4057;SDS011;2044;48.692;9.020;2022-11-14T02:50:48;28.47;;;11.40;;
4057;SDS011;2044;48.692;9.020;2022-11-14T02:53:15;77.33;;;14.50;;
4057;SDS011;2044;48.692;9.020;2022-11-14T02:55:43;87.00;;;18.07;;
4057;SDS011;2044;48.692;9.020;2022-11-14T02:58:10;120.07;;;18.10;;
4057;SDS011;2044;48.692;9.020;2022-11-14T03:00:36;103.10;;;14.00;;
4057;SDS011;2044;48.692;9.020;2022-11-14T03:03:03;57.40;;;15.30;;
4057;SDS011;2044;48.692;9.020;2022-11-14T03:05:30;58.30;;;12.50;;
4057;SDS011;2044;48.692;9.020;2022-11-14T03:07:56;73.40;;;11.17;;
4057;SDS011;2044;48.692;9.020;2022-11-14T03:10:23;48.33;;;13.30;;
4057;SDS011;2044;48.692;9.020;2022-11-14T03:12:53;79.00;;;12.50;;
4057;SDS011;2044;48.692;9.020;2022-11-14T03:15:20;32.57;;;10.13;;
4057;SDS011;2044;48.692;9.020;2022-11-14T03:17:47;92.93;;;11.17;;
4057;SDS011;2044;48.692;9.020;2022-11-14T03:20:15;59.03;;;12.63;;
4057;SDS011;2044;48.692;9.020;2022-11-14T03:22:42;45.77;;;12.20;;
4057;SDS011;2044;48.692;9.020;2022-11-14T03:25:08;44.20;;;10.63;;
4057;SDS011;2044;48.692;9.020;2022-11-14T03:27:35;43.77;;;7.80;;
4057;SDS011;2044;48.692;9.020;2022-11-14T03:30:04;51.47;;;11.80;;
4057;SDS011;2044;48.692;9.020;2022-11-14T03:32:31;47.90;;;12.10;;
4057;SDS011;2044;48.692;9.020;2022-11-14T03:34:58;66.17;;;13.97;;
4057;SDS011;2044;48.692;9.020;2022-11-14T03:37:24;49.53;;;13.23;;
4057;SDS011;2044;48.692;9.020;2022-11-14T03:39:51;52.20;;;11.13;;
4057;SDS011;2044;48.692;9.020;2022-11-14T03:42:18;54.40;;;13.30;;
4057;SDS011;2044;48.692;9.020;2022-11-14T03:44:44;61.70;;;15.17;;
4057;SDS011;2044;48.692;9.020;2022-11-14T03:47:12;40.17;;;11.30;;
4057;SDS011;2044;48.692;9.020;2022-11-14T03:49:39;65.80;;;12.50;;
4057;SDS011;2044;48.692;9.020;2022-11-14T03:52:06;40.23;;;12.33;;
4057;SDS011;2044;48.692;9.020;2022-11-14T03:54:32;43.43;;;12.70;;
4057;SDS011;2044;48.692;9.020;2022-11-14T03:56:59;43.90;;;12.30;;
4057;SDS011;2044;48.692;9.020;2022-11-14T03:59:26;31.53;;;11.20;;
4057;SDS011;2044;48.692;9.020;2022-11-14T04:01:53;27.23;;;9.13;;
4057;SDS011;2044;48.692;9.020;2022-11-14T04:04:21;32.33;;;12.70;;
4057;SDS011;2044;48.692;9.020;2022-11-14T04:06:48;39.83;;;9.20;;
4057;SDS011;2044;48.692;9.020;2022-11-14T04:09:15;29.77;;;9.43;;
4057;SDS011;2044;48.692;9.020;2022-11-14T04:11:41;48.57;;;13.80;;
4057;SDS011;2044;48.692;9.020;2022-11-14T04:14:08;30.17;;;11.50;;
4057;SDS011;2044;48.692;9.020;2022-11-14T04:16:35;37.43;;;11.10;;
4057;SDS011;2044;48.692;9.020;2022-11-14T04:19:02;31.70;;;11.00;;
4057;SDS011;2044;48.692;9.020;2022-11-14T04:21:30;29.50;;;10.60;;
4057;SDS011;2044;48.692;9.020;2022-11-14T04:23:56;35.73;;;11.13;;
4057;SDS011;2044;48.692;9.020;2022-11-14T04:26:23;31.27;;;7.93;;
4057;SDS011;2044;48.692;9.020;2022-11-14T04:28:50;42.80;;;11.37;;
4057;SDS011;2044;48.692;9.020;2022-11-14T04:31:16;47.33;;;11.80;;
4057;SDS011;2044;48.692;9.020;2022-11-14T04:33:43;33.20;;;10.00;;
4057;SDS011;2044;48.692;9.020;2022-11-14T04:36:10;34.63;;;10.83;;
4057;SDS011;2044;48.692;9.020;2022-11-14T04:38:38;37.30;;;11.50;;
4057;SDS011;2044;48.692;9.020;2022-11-14T04:41:05;40.90;;;11.53;;
4057;SDS011;2044;48.692;9.020;2022-11-14T04:43:31;112.23;;;11.57;;
4057;SDS011;2044;48.692;9.020;2022-11-14T04:45:58;22.87;;;11.00;;
4057;SDS011;2044;48.692;9.020;2022-11-14T04:48:25;26.33;;;12.17;;
4057;SDS011;2044;48.692;9.020;2022-11-14T04:50:51;21.30;;;10.87;;
4057;SDS011;2044;48.692;9.020;2022-11-14T04:53:18;23.93;;;9.97;;
4057;SDS011;2044;48.692;9.020;2022-11-14T04:55:46;26.27;;;10.63;;
4057;SDS011;2044;48.692;9.020;2022-11-14T04:58:13;24.83;;;11.40;;
4057;SDS011;2044;48.692;9.020;2022-11-14T05:00:40;23.37;;;10.23;;
4057;SDS011;2044;48.692;9.020;2022-11-14T05:03:07;23.97;;;10.73;;
4057;SDS011;2044;48.692;9.020;2022-11-14T05:05:33;25.50;;;10.70;;
4057;SDS011;2044;48.692;9.020;2022-11-14T05:08:00;21.53;;;9.93;;
4057;SDS011;2044;48.692;9.020;2022-11-14T05:10:27;22.97;;;10.60;;
4057;SDS011;2044;48.692;9.020;2022-11-14T05:12:55;21.73;;;10.27;;
4057;SDS011;2044;48.692;9.020;2022-11-14T05:15:22;23.20;;;9.97;;
4057;SDS011;2044;48.692;9.020;2022-11-14T05:17:49;22.93;;;9.93;;
4057;SDS011;2044;48.692;9.020;2022-11-14T05:20:16;27.17;;;12.07;;
4057;SDS011;2044;48.692;9.020;2022-11-14T05:22:42;22.53;;;11.23;;
4057;SDS011;2044;48.692;9.020;2022-11-14T05:25:09;28.07;;;11.57;;
4057;SDS011;2044;48.692;9.020;2022-11-14T05:27:36;31.60;;;11.33;;
4057;SDS011;2044;48.692;9.020;2022-11-14T05:30:05;24.63;;;11.93;;
4057;SDS011;2044;48.692;9.020;2022-11-14T05:32:32;24.43;;;10.50;;
4057;SDS011;2044;48.692;9.020;2022-11-14T05:34:59;21.73;;;10.47;;
4057;SDS011;2044;48.692;9.020;2022-11-14T05:37:26;23.50;;;10.77;;
4057;SDS011;2044;48.692;9.020;2022-11-14T05:39:52;16.70;;;8.77;;
4057;SDS011;2044;48.692;9.020;2022-11-14T05:42:19;23.07;;;8.97;;
4057;SDS011;2044;48.692;9.020;2022-11-14T05:44:46;12.30;;;5.70;;
4057;SDS011;2044;48.692;9.020;2022-11-14T05:47:14;26.10;;;10.33;;
4057;SDS011;2044;48.692;9.020;2022-11-14T05:49:40;25.50;;;10.67;;
4057;SDS011;2044;48.692;9.020;2022-11-14T05:52:07;17.70;;;9.20;;
4057;SDS011;2044;48.692;9.020;2022-11-14T05:54:34;22.70;;;10.60;;
4057;SDS011;2044;48.692;9.020;2022-11-14T05:57:01;23.13;;;10.17;;
4057;SDS011;2044;48.692;9.020;2022-11-14T05:59:27;24.40;;;10.10;;
4057;SDS011;2044;48.692;9.020;2022-11-14T06:01:54;25.23;;;10.37;;
4057;SDS011;2044;48.692;9.020;2022-11-14T06:04:22;23.93;;;10.50;;
4057;SDS011;2044;48.692;9.020;2022-11-14T06:06:49;22.70;;;10.03;;
4057;SDS011;2044;48.692;9.020;2022-11-14T06:09:16;20.13;;;10.10;;
4057;SDS011;2044;48.692;9.020;2022-11-14T06:11:42;25.03;;;10.57;;
4057;SDS011;2044;48.692;9.020;2022-11-14T06:14:09;24.40;;;10.20;;
4057;SDS011;2044;48.692;9.020;2022-11-14T06:16:36;22.60;;;10.50;;
4057;SDS011;2044;48.692;9.020;2022-11-14T06:19:02;23.30;;;11.10;;
4057;SDS011;2044;48.692;9.020;2022-11-14T06:21:31;22.77;;;11.30;;
4057;SDS011;2044;48.692;9.020;2022-11-14T06:23:58;25.17;;;11.83;;
4057;SDS011;2044;48.692;9.020;2022-11-14T06:26:26;25.00;;;11.80;;
4057;SDS011;2044;48.692;9.020;2022-11-14T06:28:55;23.30;;;10.60;;
4057;SDS011;2044;48.692;9.020;2022-11-14T06:31:22;27.93;;;12.10;;
4057;SDS011;2044;48.692;9.020;2022-11-14T06:33:50;22.47;;;10.93;;
4057;SDS011;2044;48.692;9.020;2022-11-14T06:36:17;29.67;;;11.90;;
4057;SDS011;2044;48.692;9.020;2022-11-14T06:38:45;28.10;;;13.70;;
4057;SDS011;2044;48.692;9.020;2022-11-14T06:41:12;28.70;;;10.60;;
4057;SDS011;2044;48.692;9.020;2022-11-14T06:43:41;24.67;;;11.40;;
4057;SDS011;2044;48.692;9.020;2022-11-14T06:46:10;29.27;;;11.57;;
4057;SDS011;2044;48.692;9.020;2022-11-14T06:48:38;31.20;;;14.50;;
4057;SDS011;2044;48.692;9.020;2022-11-14T06:51:05;23.90;;;10.37;;
4057;SDS011;2044;48.692;9.020;2022-11-14T06:53:33;25.73;;;10.93;;
4057;SDS011;2044;48.692;9.020;2022-11-14T06:56:03;25.73;;;11.97;;
4057;SDS011;2044;48.692;9.020;2022-11-14T06:58:31;30.43;;;12.70;;
4057;SDS011;2044;48.692;9.020;2022-11-14T07:01:02;26.73;;;12.13;;
4057;SDS011;2044;48.692;9.020;2022-11-14T07:03:30;25.30;;;11.37;;
4057;SDS011;2044;48.692;9.020;2022-11-14T07:05:57;29.63;;;11.93;;
4057;SDS011;2044;48.692;9.020;2022-11-14T07:08:23;24.97;;;11.00;;
4057;SDS011;2044;48.692;9.020;2022-11-14T07:10:50;25.97;;;10.97;;
4057;SDS011;2044;48.692;9.020;2022-11-14T07:13:18;26.37;;;11.30;;
4057;SDS011;2044;48.692;9.020;2022-11-14T07:15:49;24.63;;;11.90;;
4057;SDS011;2044;48.692;9.020;2022-11-14T07:18:16;24.43;;;11.27;;
4057;SDS011;2044;48.692;9.020;2022-11-14T07:20:43;23.60;;;10.87;;
4057;SDS011;2044;48.692;9.020;2022-11-14T07:23:09;22.70;;;11.40;;
4057;SDS011;2044;48.692;9.020;2022-11-14T07:25:36;36.83;;;13.30;;
4057;SDS011;2044;48.692;9.020;2022-11-14T07:28:03;28.37;;;12.33;;
4057;SDS011;2044;48.692;9.020;2022-11-14T07:30:31;27.67;;;12.20;;
4057;SDS011;2044;48.692;9.020;2022-11-14T07:32:58;30.17;;;14.50;;
4057;SDS011;2044;48.692;9.020;2022-11-14T07:35:25;29.47;;;12.90;;
4057;SDS011;2044;48.692;9.020;2022-11-14T07:37:52;29.97;;;14.10;;
4057;SDS011;2044;48.692;9.020;2022-11-14T07:40:18;27.03;;;13.87;;
4057;SDS011;2044;48.692;9.020;2022-11-14T07:42:45;30.23;;;13.50;;
4057;SDS011;2044;48.692;9.020;2022-11-14T07:45:12;27.20;;;13.27;;
4057;SDS011;2044;48.692;9.020;2022-11-14T07:47:41;28.20;;;13.33;;
4057;SDS011;2044;48.692;9.020;2022-11-14T07:50:08;31.70;;;15.70;;
4057;SDS011;2044;48.692;9.020;2022-11-14T07:52:35;35.27;;;14.20;;
4057;SDS011;2044;48.692;9.020;2022-11-14T07:55:01;27.77;;;12.67;;
4057;SDS011;2044;48.692;9.020;2022-11-14T07:57:28;32.40;;;14.50;;
4057;SDS011;2044;48.692;9.020;2022-11-14T07:59:55;40.43;;;17.67;;
4057;SDS011;2044;48.692;9.020;2022-11-14T08:02:22;37.23;;;17.80;;
4057;SDS011;2044;48.692;9.020;2022-11-14T08:04:50;30.70;;;15.73;;
4057;SDS011;2044;48.692;9.020;2022-11-14T08:07:16;26.90;;;12.50;;
4057;SDS011;2044;48.692;9.020;2022-11-14T08:09:43;24.53;;;10.73;;
4057;SDS011;2044;48.692;9.020;2022-11-14T08:12:10;15.87;;;8.73;;
4057;SDS011;2044;48.692;9.020;2022-11-14T08:14:36;22.00;;;11.03;;
4057;SDS011;2044;48.692;9.020;2022-11-14T08:17:03;25.63;;;10.67;;
4057;SDS011;2044;48.692;9.020;2022-11-14T08:19:30;14.50;;;7.57;;
4057;SDS011;2044;48.692;9.020;2022-11-14T08:21:58;21.73;;;9.40;;
4057;SDS011;2044;48.692;9.020;2022-11-14T08:24:25;13.90;;;7.30;;
4057;SDS011;2044;48.692;9.020;2022-11-14T08:26:51;20.60;;;10.37;;
4057;SDS011;2044;48.692;9.020;2022-11-14T08:29:18;18.10;;;7.30;;
4057;SDS011;2044;48.692;9.020;2022-11-14T08:31:45;9.03;;;5.83;;
4057;SDS011;2044;48.692;9.020;2022-11-14T08:34:12;6.43;;;4.67;;
4057;SDS011;2044;48.692;9.020;2022-11-14T08:36:38;4.57;;;2.37;;
4057;SDS011;2044;48.692;9.020;2022-11-14T08:39:06;5.03;;;3.50;;
4057;SDS011;2044;48.692;9.020;2022-11-14T08:41:33;4.07;;;2.10;;
4057;SDS011;2044;48.692;9.020;2022-11-14T08:44:00;2.60;;;1.80;;
4057;SDS011;2044;48.692;9.020;2022-11-14T08:46:26;1.77;;;1.67;;
4057;SDS011;2044;48.692;9.020;2022-11-14T08:48:53;3.40;;;2.13;;
4057;SDS011;2044;48.692;9.020;2022-11-14T08:51:20;2.00;;;1.90;;
4057;SDS011;2044;48.692;9.020;2022-11-14T08:53:47;1.93;;;1.37;;
4057;SDS011;2044;48.692;9.020;2022-11-14T08:56:16;2.17;;;1.13;;
4057;SDS011;2044;48.692;9.020;2022-11-14T08:58:43;2.87;;;1.80;;
4057;SDS011;2044;48.692;9.020;2022-11-14T09:01:10;2.03;;;1.47;;
4057;SDS011;2044;48.692;9.020;2022-11-14T09:03:37;2.20;;;1.60;;
4057;SDS011;2044;48.692;9.020;2022-11-14T09:06:04;6.83;;;2.40;;
4057;SDS011;2044;48.692;9.020;2022-11-14T09:08:30;1.87;;;1.30;;
4057;SDS011;2044;48.692;9.020;2022-11-14T09:10:58;3.27;;;2.07;;
4057;SDS011;2044;48.692;9.020;2022-11-14T09:13:27;3.87;;;3.57;;
4057;SDS011;2044;48.692;9.020;2022-11-14T09:15:56;7.03;;;2.90;;
4057;SDS011;2044;48.692;9.020;2022-11-14T09:18:23;2.57;;;1.70;;
4057;SDS011;2044;48.692;9.020;2022-11-14T09:20:50;3.00;;;2.27;;
4057;SDS011;2044;48.692;9.020;2022-11-14T09:23:17;4.80;;;2.40;;
4057;SDS011;2044;48.692;9.020;2022-11-14T09:25:43;2.37;;;2.17;;
4057;SDS011;2044;48.692;9.020;2022-11-14T09:28:10;3.53;;;2.00;;
4057;SDS011;2044;48.692;9.020;2022-11-14T09:30:38;5.87;;;2.10;;
4057;SDS011;2044;48.692;9.020;2022-11-14T09:33:06;5.23;;;2.07;;
4057;SDS011;2044;48.692;9.020;2022-11-14T09:35:32;2.77;;;2.33;;
4057;SDS011;2044;48.692;9.020;2022-11-14T09:38:00;6.93;;;2.73;;
4057;SDS011;2044;48.692;9.020;2022-11-14T09:40:29;2.57;;;2.10;;
4057;SDS011;2044;48.692;9.020;2022-11-14T09:43:12;2.67;;;1.97;;
4057;SDS011;2044;48.692;9.020;2022-11-14T09:45:50;6.73;;;2.10;;
4057;SDS011;2044;48.692;9.020;2022-11-14T09:48:18;8.03;;;3.23;;
4057;SDS011;2044;48.692;9.020;2022-11-14T09:50:50;2.97;;;1.80;;
4057;SDS011;2044;48.692;9.020;2022-11-14T09:53:26;3.30;;;2.70;;
4057;SDS011;2044;48.692;9.020;2022-11-14T09:55:56;6.13;;;2.87;;
4057;SDS011;2044;48.692;9.020;2022-11-14T09:58:23;4.13;;;2.53;;
4057;SDS011;2044;48.692;9.020;2022-11-14T10:00:53;4.20;;;2.13;;
4057;SDS011;2044;48.692;9.020;2022-11-14T10:03:28;3.63;;;2.30;;
4057;SDS011;2044;48.692;9.020;2022-11-14T10:06:08;3.90;;;1.83;;
4057;SDS011;2044;48.692;9.020;2022-11-14T10:08:45;2.63;;;2.17;;
4057;SDS011;2044;48.692;9.020;2022-11-14T10:11:19;4.10;;;1.63;;
4057;SDS011;2044;48.692;9.020;2022-11-14T10:13:51;3.70;;;2.10;;
4057;SDS011;2044;48.692;9.020;2022-11-14T10:16:32;2.50;;;1.77;;
4057;SDS011;2044;48.692;9.020;2022-11-14T10:19:14;3.80;;;1.70;;
4057;SDS011;2044;48.692;9.020;2022-11-14T10:21:58;2.03;;;1.70;;
4057;SDS011;2044;48.692;9.020;2022-11-14T10:24:45;2.30;;;1.23;;
4057;SDS011;2044;48.692;9.020;2022-11-14T10:27:21;1.60;;;1.30;;
4057;SDS011;2044;48.692;9.020;2022-11-14T10:29:56;2.70;;;1.57;;
4057;SDS011;2044;48.692;9.020;2022-11-14T10:32:37;1.30;;;1.03;;
4057;SDS011;2044;48.692;9.020;2022-11-14T10:35:17;1.80;;;1.63;;
4057;SDS011;2044;48.692;9.020;2022-11-14T10:37:49;2.40;;;1.20;;
4057;SDS011;2044;48.692;9.020;2022-11-14T10:40:23;1.40;;;1.20;;
4057;SDS011;2044;48.692;9.020;2022-11-14T10:42:53;1.70;;;1.47;;
4057;SDS011;2044;48.692;9.020;2022-11-14T10:45:23;2.87;;;1.30;;
4057;SDS011;2044;48.692;9.020;2022-11-14T10:47:55;5.87;;;1.70;;
4057;SDS011;2044;48.692;9.020;2022-11-14T10:50:26;1.07;;;0.97;;
4057;SDS011;2044;48.692;9.020;2022-11-14T10:53:15;1.37;;;1.10;;
4057;SDS011;2044;48.692;9.020;2022-11-14T10:55:48;1.30;;;1.10;;
4057;SDS011;2044;48.692;9.020;2022-11-14T10:58:15;1.40;;;1.30;;
4057;SDS011;2044;48.692;9.020;2022-11-14T11:00:42;1.13;;;0.93;;
4057;SDS011;2044;48.692;9.020;2022-11-14T11:03:10;1.40;;;1.10;;
4057;SDS011;2044;48.692;9.020;2022-11-14T11:05:48;7.80;;;1.13;;
4057;SDS011;2044;48.692;9.020;2022-11-14T11:08:19;2.20;;;1.13;;
4057;SDS011;2044;48.692;9.020;2022-11-14T11:11:10;4.33;;;1.60;;
4057;SDS011;2044;48.692;9.020;2022-11-14T11:13:56;1.20;;;1.10;;
4057;SDS011;2044;48.692;9.020;2022-11-14T11:16:26;1.93;;;1.20;;
4057;SDS011;2044;48.692;9.020;2022-11-14T11:18:56;1.40;;;1.20;;
4057;SDS011;2044;48.692;9.020;2022-11-14T11:21:45;1.40;;;1.07;;
4057;SDS011;2044;48.692;9.020;2022-11-14T11:24:15;1.40;;;1.27;;
4057;SDS011;2044;48.692;9.020;2022-11-14T11:27:12;2.70;;;1.10;;
4057;SDS011;2044;48.692;9.020;2022-11-14T11:29:46;1.30;;;1.10;;
4057;SDS011;2044;48.692;9.020;2022-11-14T11:32:22;1.40;;;1.13;;
4057;SDS011;2044;48.692;9.020;2022-11-14T11:34:52;2.53;;;1.40;;
4057;SDS011;2044;48.692;9.020;2022-11-14T11:37:19;3.33;;;1.00;;
4057;SDS011;2044;48.692;9.020;2022-11-14T11:39:50;1.50;;;1.20;;
4057;SDS011;2044;48.692;9.020;2022-11-14T11:42:21;2.20;;;1.77;;
4057;SDS011;2044;48.692;9.020;2022-11-14T11:44:54;1.70;;;1.30;;
4057;SDS011;2044;48.692;9.020;2022-11-14T11:47:24;1.30;;;1.20;;
4057;SDS011;2044;48.692;9.020;2022-11-14T11:49:55;1.23;;;1.00;;
4057;SDS011;2044;48.692;9.020;2022-11-14T11:52:25;1.83;;;1.30;;
4057;SDS011;2044;48.692;9.020;2022-11-14T11:54:59;3.10;;;1.30;;
4057;SDS011;2044;48.692;9.020;2022-11-14T11:57:31;1.20;;;1.10;;
4057;SDS011;2044;48.692;9.020;2022-11-14T12:00:03;2.33;;;1.10;;
4057;SDS011;2044;48.692;9.020;2022-11-14T12:02:32;1.73;;;1.23;;
4057;SDS011;2044;48.692;9.020;2022-11-14T12:05:09;1.50;;;1.10;;
4057;SDS011;2044;48.692;9.020;2022-11-14T12:07:42;2.03;;;1.00;;
4057;SDS011;2044;48.692;9.020;2022-11-14T12:10:17;1.40;;;1.20;;
4057;SDS011;2044;48.692;9.020;2022-11-14T12:12:55;1.90;;;1.23;;
4057;SDS011;2044;48.692;9.020;2022-11-14T12:15:44;1.30;;;1.20;;
4057;SDS011;2044;48.692;9.020;2022-11-14T12:18:22;1.53;;;1.37;;
4057;SDS011;2044;48.692;9.020;2022-11-14T12:21:12;1.37;;;1.00;;
4057;SDS011;2044;48.692;9.020;2022-11-14T12:26:51;1.33;;;1.23;;
4057;SDS011;2044;48.692;9.020;2022-11-14T12:29:29;1.90;;;1.47;;
4057;SDS011;2044;48.692;9.020;2022-11-14T12:32:11;1.57;;;1.47;;
4057;SDS011;2044;48.692;9.020;2022-11-14T12:34:41;1.50;;;1.40;;
4057;SDS011;2044;48.692;9.020;2022-11-14T12:37:14;2.70;;;1.50;;
4057;SDS011;2044;48.692;9.020;2022-11-14T12:39:53;1.60;;;1.50;;
4057;SDS011;2044;48.692;9.020;2022-11-14T12:42:21;2.17;;;1.90;;
4057;SDS011;2044;48.692;9.020;2022-11-14T12:44:48;2.80;;;1.70;;
4057;SDS011;2044;48.692;9.020;2022-11-14T12:47:19;2.30;;;2.10;;
4057;SDS011;2044;48.692;9.020;2022-11-14T12:50:04;3.80;;;2.80;;
4057;SDS011;2044;48.692;9.020;2022-11-14T12:53:00;4.97;;;2.83;;
4057;SDS011;2044;48.692;9.020;2022-11-14T12:58:31;1.37;;;1.27;;
4057;SDS011;2044;48.692;9.020;2022-11-14T13:01:22;1.70;;;1.37;;
4057;SDS011;2044;48.692;9.020;2022-11-14T13:04:02;3.03;;;2.27;;
4057;SDS011;2044;48.692;9.020;2022-11-14T13:06:42;2.80;;;1.87;;
4057;SDS011;2044;48.692;9.020;2022-11-14T13:09:22;2.10;;;1.60;;
4057;SDS011;2044;48.692;9.020;2022-11-14T13:11:56;2.27;;;1.67;;
4057;SDS011;2044;48.692;9.020;2022-11-14T13:14:47;1.40;;;1.30;;
4057;SDS011;2044;48.692;9.020;2022-11-14T13:17:32;1.90;;;1.70;;
4057;SDS011;2044;48.692;9.020;2022-11-14T13:20:27;2.30;;;1.37;;
4057;SDS011;2044;48.692;9.020;2022-11-14T13:35:38;2.20;;;1.90;;
4057;SDS011;2044;48.692;9.020;2022-11-14T13:41:41;2.40;;;2.07;;
4057;SDS011;2044;48.692;9.020;2022-11-14T13:44:45;3.37;;;1.90;;
4057;SDS011;2044;48.692;9.020;2022-11-14T13:50:35;2.40;;;2.20;;
4057;SDS011;2044;48.692;9.020;2022-11-14T13:53:09;1.90;;;1.60;;
4057;SDS011;2044;48.692;9.020;2022-11-14T13:55:44;3.13;;;2.10;;
4057;SDS011;2044;48.692;9.020;2022-11-14T13:58:22;4.47;;;2.10;;
4057;SDS011;2044;48.692;9.020;2022-11-14T14:01:08;1.60;;;1.50;;
4057;SDS011;2044;48.692;9.020;2022-11-14T14:03:52;2.07;;;1.87;;
4057;SDS011;2044;48.692;9.020;2022-11-14T14:06:30;2.50;;;2.30;;
4057;SDS011;2044;48.692;9.020;2022-11-14T14:09:09;3.00;;;1.77;;
4057;SDS011;2044;48.692;9.020;2022-11-14T14:11:45;1.93;;;1.83;;
4057;SDS011;2044;48.692;9.020;2022-11-14T14:14:32;2.13;;;1.73;;
4057;SDS011;2044;48.692;9.020;2022-11-14T14:17:11;2.30;;;2.10;;
4057;SDS011;2044;48.692;9.020;2022-11-14T14:19:49;7.30;;;1.80;;
4057;SDS011;2044;48.692;9.020;2022-11-14T14:22:27;3.37;;;2.10;;
4057;SDS011;2044;48.692;9.020;2022-11-14T14:25:02;1.87;;;1.43;;
4057;SDS011;2044;48.692;9.020;2022-11-14T14:27:36;3.40;;;1.90;;
4057;SDS011;2044;48.692;9.020;2022-11-14T14:30:07;2.57;;;2.27;;
4057;SDS011;2044;48.692;9.020;2022-11-14T14:32:37;2.93;;;1.90;;
4057;SDS011;2044;48.692;9.020;2022-11-14T14:35:20;4.30;;;2.37;;
4057;SDS011;2044;48.692;9.020;2022-11-14T14:37:49;2.13;;;1.97;;
4057;SDS011;2044;48.692;9.020;2022-11-14T14:40:21;2.23;;;2.03;;
4057;SDS011;2044;48.692;9.020;2022-11-14T14:42:50;5.17;;;2.50;;
4057;SDS011;2044;48.692;9.020;2022-11-14T14:45:18;3.17;;;2.23;;
4057;SDS011;2044;48.692;9.020;2022-11-14T14:47:48;2.70;;;2.07;;
4057;SDS011;2044;48.692;9.020;2022-11-14T14:50:18;2.10;;;1.90;;
4057;SDS011;2044;48.692;9.020;2022-11-14T14:52:53;3.90;;;2.70;;
4057;SDS011;2044;48.692;9.020;2022-11-14T14:55:22;2.40;;;2.20;;
4057;SDS011;2044;48.692;9.020;2022-11-14T14:57:50;2.70;;;2.40;;
4057;SDS011;2044;48.692;9.020;2022-11-14T15:00:19;3.97;;;2.53;;
4057;SDS011;2044;48.692;9.020;2022-11-14T15:02:51;4.40;;;2.87;;
4057;SDS011;2044;48.692;9.020;2022-11-14T15:05:20;8.20;;;4.00;;
4057;SDS011;2044;48.692;9.020;2022-11-14T15:07:47;7.50;;;4.17;;
4057;SDS011;2044;48.692;9.020;2022-11-14T15:10:18;3.10;;;2.80;;
4057;SDS011;2044;48.692;9.020;2022-11-14T15:12:47;6.47;;;3.47;;
4057;SDS011;2044;48.692;9.020;2022-11-14T15:15:15;4.43;;;2.97;;
4057;SDS011;2044;48.692;9.020;2022-11-14T15:17:44;5.33;;;4.83;;
4057;SDS011;2044;48.692;9.020;2022-11-14T15:20:21;4.87;;;3.40;;
4057;SDS011;2044;48.692;9.020;2022-11-14T15:23:00;9.13;;;3.20;;
4057;SDS011;2044;48.692;9.020;2022-11-14T15:25:29;4.67;;;3.20;;
4057;SDS011;2044;48.692;9.020;2022-11-14T15:27:56;3.87;;;2.80;;
4057;SDS011;2044;48.692;9.020;2022-11-14T15:30:25;3.80;;;3.50;;
4057;SDS011;2044;48.692;9.020;2022-11-14T15:32:55;2.93;;;2.57;;
4057;SDS011;2044;48.692;9.020;2022-11-14T15:35:26;3.80;;;2.93;;
4057;SDS011;2044;48.692;9.020;2022-11-14T15:37:58;3.30;;;3.00;;
4057;SDS011;2044;48.692;9.020;2022-11-14T15:40:30;4.53;;;2.57;;
4057;SDS011;2044;48.692;9.020;2022-11-14T15:42:58;3.20;;;2.90;;